Rocanville, Canada
Current Conditions -  °F | °C
As of 10:00 PM on Wednesday 28 Jan 2015 (Local Time) from CYQV Reporting Station
Light Snow Light Snow  
Wind Chill: -3°   Ceiling: 1300
Heat Index: 14°   Visibility: 9mi
Dew Point: 10°   Wind: 18mph
Humidity: 86%   Direction: 320°NW
Pressure: 30.25"   Gusts: NA
Location:  50.38°N, 101.7°W
Report Text: CYQV 290400Z AUTO 32016KT 9SM -SN OVC013 M10/M12 A3025 RMK SLP284
Loading
Personal Weather Stations






























Interactive Weather Map New forecast layout! Learn more

10-Day Weather Forecast

Advertisements
Track Severe Weather on mobile